sensor_id;sensor_type;location;lat;lon;timestamp;P1;durP1;ratioP1;P2;durP2;ratioP2
21012;SDS011;10664;53.582;9.712;2022-12-04T00:00:49;30.60;;;20.83;;
21012;SDS011;10664;53.582;9.712;2022-12-04T00:03:15;29.87;;;20.70;;
21012;SDS011;10664;53.582;9.712;2022-12-04T00:05:41;35.83;;;22.20;;
21012;SDS011;10664;53.582;9.712;2022-12-04T00:08:07;33.80;;;22.47;;
21012;SDS011;10664;53.582;9.712;2022-12-04T00:10:33;32.87;;;21.47;;
21012;SDS011;10664;53.582;9.712;2022-12-04T00:12:59;33.43;;;21.20;;
21012;SDS011;10664;53.582;9.712;2022-12-04T00:15:25;33.40;;;21.97;;
21012;SDS011;10664;53.582;9.712;2022-12-04T00:17:51;35.23;;;22.13;;
21012;SDS011;10664;53.582;9.712;2022-12-04T00:20:17;32.47;;;21.10;;
21012;SDS011;10664;53.582;9.712;2022-12-04T00:22:43;33.57;;;22.53;;
21012;SDS011;10664;53.582;9.712;2022-12-04T00:25:09;32.97;;;22.53;;
21012;SDS011;10664;53.582;9.712;2022-12-04T00:27:35;33.70;;;21.23;;
21012;SDS011;10664;53.582;9.712;2022-12-04T00:30:01;35.27;;;21.33;;
21012;SDS011;10664;53.582;9.712;2022-12-04T00:32:28;33.10;;;21.43;;
21012;SDS011;10664;53.582;9.712;2022-12-04T00:34:54;33.77;;;21.60;;
21012;SDS011;10664;53.582;9.712;2022-12-04T00:37:20;33.53;;;22.23;;
21012;SDS011;10664;53.582;9.712;2022-12-04T00:39:46;33.87;;;21.77;;
21012;SDS011;10664;53.582;9.712;2022-12-04T00:42:12;34.07;;;21.70;;
21012;SDS011;10664;53.582;9.712;2022-12-04T00:44:38;31.93;;;20.97;;
21012;SDS011;10664;53.582;9.712;2022-12-04T00:47:04;31.73;;;22.40;;
21012;SDS011;10664;53.582;9.712;2022-12-04T00:49:30;33.10;;;22.00;;
21012;SDS011;10664;53.582;9.712;2022-12-04T00:51:56;32.90;;;21.90;;
21012;SDS011;10664;53.582;9.712;2022-12-04T00:54:22;31.20;;;20.10;;
21012;SDS011;10664;53.582;9.712;2022-12-04T00:56:48;33.70;;;20.53;;
21012;SDS011;10664;53.582;9.712;2022-12-04T00:59:14;34.43;;;21.57;;
21012;SDS011;10664;53.582;9.712;2022-12-04T01:01:40;30.97;;;20.63;;
21012;SDS011;10664;53.582;9.712;2022-12-04T01:04:06;33.80;;;21.17;;
21012;SDS011;10664;53.582;9.712;2022-12-04T01:06:32;29.83;;;20.43;;
21012;SDS011;10664;53.582;9.712;2022-12-04T01:08:59;29.80;;;19.83;;
21012;SDS011;10664;53.582;9.712;2022-12-04T01:11:26;29.63;;;20.03;;
21012;SDS011;10664;53.582;9.712;2022-12-04T01:13:52;30.03;;;20.17;;
21012;SDS011;10664;53.582;9.712;2022-12-04T01:16:21;29.97;;;20.03;;
21012;SDS011;10664;53.582;9.712;2022-12-04T01:18:47;32.20;;;20.13;;
21012;SDS011;10664;53.582;9.712;2022-12-04T01:21:13;30.90;;;20.50;;
21012;SDS011;10664;53.582;9.712;2022-12-04T01:23:39;30.93;;;20.20;;
21012;SDS011;10664;53.582;9.712;2022-12-04T01:26:05;30.40;;;19.53;;
21012;SDS011;10664;53.582;9.712;2022-12-04T01:28:32;31.10;;;21.03;;
21012;SDS011;10664;53.582;9.712;2022-12-04T01:31:03;28.80;;;19.53;;
21012;SDS011;10664;53.582;9.712;2022-12-04T01:33:30;28.73;;;19.63;;
21012;SDS011;10664;53.582;9.712;2022-12-04T01:35:56;27.60;;;19.17;;
21012;SDS011;10664;53.582;9.712;2022-12-04T01:38:23;26.33;;;18.43;;
21012;SDS011;10664;53.582;9.712;2022-12-04T01:40:49;27.13;;;18.83;;
21012;SDS011;10664;53.582;9.712;2022-12-04T01:43:16;28.67;;;18.80;;
21012;SDS011;10664;53.582;9.712;2022-12-04T01:45:43;28.03;;;19.20;;
21012;SDS011;10664;53.582;9.712;2022-12-04T01:48:12;26.10;;;19.00;;
21012;SDS011;10664;53.582;9.712;2022-12-04T01:50:40;29.10;;;19.40;;
21012;SDS011;10664;53.582;9.712;2022-12-04T01:53:07;28.83;;;18.17;;
21012;SDS011;10664;53.582;9.712;2022-12-04T01:55:33;25.97;;;18.20;;
21012;SDS011;10664;53.582;9.712;2022-12-04T01:57:59;28.50;;;18.60;;
21012;SDS011;10664;53.582;9.712;2022-12-04T02:00:26;27.40;;;18.57;;
21012;SDS011;10664;53.582;9.712;2022-12-04T02:02:52;26.47;;;17.83;;
21012;SDS011;10664;53.582;9.712;2022-12-04T02:05:19;29.07;;;19.90;;
21012;SDS011;10664;53.582;9.712;2022-12-04T02:07:46;25.97;;;18.53;;
21012;SDS011;10664;53.582;9.712;2022-12-04T02:10:14;28.27;;;18.93;;
21012;SDS011;10664;53.582;9.712;2022-12-04T02:12:54;27.47;;;18.57;;
21012;SDS011;10664;53.582;9.712;2022-12-04T02:15:31;26.63;;;17.83;;
21012;SDS011;10664;53.582;9.712;2022-12-04T02:20:32;27.00;;;18.10;;
21012;SDS011;10664;53.582;9.712;2022-12-04T02:30:44;28.23;;;19.30;;
21012;SDS011;10664;53.582;9.712;2022-12-04T02:33:14;28.97;;;19.60;;
21012;SDS011;10664;53.582;9.712;2022-12-04T02:35:44;26.43;;;18.60;;
21012;SDS011;10664;53.582;9.712;2022-12-04T02:38:22;27.07;;;19.73;;
21012;SDS011;10664;53.582;9.712;2022-12-04T02:40:51;27.93;;;18.53;;
21012;SDS011;10664;53.582;9.712;2022-12-04T02:43:22;26.83;;;18.93;;
21012;SDS011;10664;53.582;9.712;2022-12-04T02:45:56;28.63;;;19.23;;
21012;SDS011;10664;53.582;9.712;2022-12-04T02:48:23;29.77;;;19.87;;
21012;SDS011;10664;53.582;9.712;2022-12-04T02:50:51;26.77;;;17.97;;
21012;SDS011;10664;53.582;9.712;2022-12-04T02:53:23;28.10;;;19.13;;
21012;SDS011;10664;53.582;9.712;2022-12-04T02:55:51;28.80;;;19.70;;
21012;SDS011;10664;53.582;9.712;2022-12-04T02:58:23;27.83;;;19.07;;
21012;SDS011;10664;53.582;9.712;2022-12-04T03:00:50;27.97;;;18.20;;
21012;SDS011;10664;53.582;9.712;2022-12-04T03:03:19;27.27;;;18.17;;
21012;SDS011;10664;53.582;9.712;2022-12-04T03:05:54;27.97;;;19.33;;
21012;SDS011;10664;53.582;9.712;2022-12-04T03:08:22;28.90;;;19.00;;
21012;SDS011;10664;53.582;9.712;2022-12-04T03:10:50;28.40;;;18.87;;
21012;SDS011;10664;53.582;9.712;2022-12-04T03:13:19;28.30;;;18.60;;
21012;SDS011;10664;53.582;9.712;2022-12-04T03:15:49;28.10;;;19.20;;
21012;SDS011;10664;53.582;9.712;2022-12-04T03:18:28;28.03;;;18.77;;
21012;SDS011;10664;53.582;9.712;2022-12-04T03:20:57;28.27;;;19.00;;
21012;SDS011;10664;53.582;9.712;2022-12-04T03:23:29;29.87;;;19.00;;
21012;SDS011;10664;53.582;9.712;2022-12-04T03:25:58;28.57;;;19.07;;
21012;SDS011;10664;53.582;9.712;2022-12-04T03:28:27;26.47;;;18.77;;
21012;SDS011;10664;53.582;9.712;2022-12-04T03:30:56;26.93;;;18.13;;
21012;SDS011;10664;53.582;9.712;2022-12-04T03:33:32;27.53;;;17.97;;
21012;SDS011;10664;53.582;9.712;2022-12-04T03:36:09;28.13;;;18.83;;
21012;SDS011;10664;53.582;9.712;2022-12-04T03:38:46;26.60;;;18.57;;
21012;SDS011;10664;53.582;9.712;2022-12-04T03:41:26;27.13;;;18.20;;
21012;SDS011;10664;53.582;9.712;2022-12-04T03:43:59;24.63;;;17.03;;
21012;SDS011;10664;53.582;9.712;2022-12-04T03:46:30;28.13;;;18.03;;
21012;SDS011;10664;53.582;9.712;2022-12-04T03:49:01;27.63;;;18.43;;
21012;SDS011;10664;53.582;9.712;2022-12-04T03:51:33;28.97;;;18.77;;
21012;SDS011;10664;53.582;9.712;2022-12-04T03:54:04;29.70;;;19.23;;
21012;SDS011;10664;53.582;9.712;2022-12-04T03:56:34;27.90;;;18.50;;
21012;SDS011;10664;53.582;9.712;2022-12-04T03:59:23;29.27;;;18.30;;
21012;SDS011;10664;53.582;9.712;2022-12-04T04:01:47;25.57;;;17.30;;
21012;SDS011;10664;53.582;9.712;2022-12-04T04:04:18;27.37;;;18.17;;
21012;SDS011;10664;53.582;9.712;2022-12-04T04:06:53;29.07;;;18.53;;
21012;SDS011;10664;53.582;9.712;2022-12-04T04:09:21;30.07;;;17.90;;
21012;SDS011;10664;53.582;9.712;2022-12-04T04:11:51;28.60;;;18.00;;
21012;SDS011;10664;53.582;9.712;2022-12-04T04:14:21;30.70;;;19.53;;
21012;SDS011;10664;53.582;9.712;2022-12-04T04:17:07;26.43;;;17.80;;
21012;SDS011;10664;53.582;9.712;2022-12-04T04:19:54;27.53;;;18.77;;
21012;SDS011;10664;53.582;9.712;2022-12-04T04:22:40;28.20;;;18.60;;
21012;SDS011;10664;53.582;9.712;2022-12-04T04:25:24;31.13;;;18.73;;
21012;SDS011;10664;53.582;9.712;2022-12-04T04:27:55;26.97;;;17.93;;
21012;SDS011;10664;53.582;9.712;2022-12-04T04:30:22;27.20;;;17.57;;
21012;SDS011;10664;53.582;9.712;2022-12-04T04:32:58;28.60;;;18.80;;
21012;SDS011;10664;53.582;9.712;2022-12-04T04:35:28;29.27;;;19.60;;
21012;SDS011;10664;53.582;9.712;2022-12-04T04:43:04;29.20;;;18.40;;
21012;SDS011;10664;53.582;9.712;2022-12-04T04:45:37;29.93;;;18.97;;
21012;SDS011;10664;53.582;9.712;2022-12-04T04:48:05;27.30;;;17.97;;
21012;SDS011;10664;53.582;9.712;2022-12-04T04:50:32;26.13;;;16.87;;
21012;SDS011;10664;53.582;9.712;2022-12-04T04:52:59;28.13;;;18.40;;
21012;SDS011;10664;53.582;9.712;2022-12-04T04:55:26;27.17;;;18.27;;
21012;SDS011;10664;53.582;9.712;2022-12-04T04:57:53;26.90;;;17.97;;
21012;SDS011;10664;53.582;9.712;2022-12-04T05:00:22;28.97;;;18.07;;
21012;SDS011;10664;53.582;9.712;2022-12-04T05:02:48;29.73;;;18.90;;
21012;SDS011;10664;53.582;9.712;2022-12-04T05:05:15;28.07;;;18.67;;
21012;SDS011;10664;53.582;9.712;2022-12-04T05:07:41;27.90;;;17.93;;
21012;SDS011;10664;53.582;9.712;2022-12-04T05:10:07;27.97;;;18.03;;
21012;SDS011;10664;53.582;9.712;2022-12-04T05:12:33;27.23;;;18.27;;
21012;SDS011;10664;53.582;9.712;2022-12-04T05:14:59;26.83;;;17.97;;
21012;SDS011;10664;53.582;9.712;2022-12-04T05:17:25;23.83;;;16.67;;
21012;SDS011;10664;53.582;9.712;2022-12-04T05:19:52;28.37;;;17.97;;
21012;SDS011;10664;53.582;9.712;2022-12-04T05:22:19;25.67;;;17.53;;
21012;SDS011;10664;53.582;9.712;2022-12-04T05:24:45;27.07;;;18.73;;
21012;SDS011;10664;53.582;9.712;2022-12-04T05:27:11;28.33;;;18.30;;
21012;SDS011;10664;53.582;9.712;2022-12-04T05:29:37;27.60;;;18.17;;
21012;SDS011;10664;53.582;9.712;2022-12-04T05:32:03;27.83;;;18.27;;
21012;SDS011;10664;53.582;9.712;2022-12-04T05:34:29;25.03;;;18.23;;
21012;SDS011;10664;53.582;9.712;2022-12-04T05:36:55;24.37;;;17.57;;
21012;SDS011;10664;53.582;9.712;2022-12-04T05:39:21;26.10;;;17.93;;
21012;SDS011;10664;53.582;9.712;2022-12-04T05:41:47;26.87;;;18.23;;
21012;SDS011;10664;53.582;9.712;2022-12-04T05:44:13;26.13;;;18.60;;
21012;SDS011;10664;53.582;9.712;2022-12-04T05:46:39;28.43;;;19.33;;
21012;SDS011;10664;53.582;9.712;2022-12-04T05:49:05;27.60;;;17.40;;
21012;SDS011;10664;53.582;9.712;2022-12-04T05:51:31;24.67;;;17.67;;
21012;SDS011;10664;53.582;9.712;2022-12-04T05:53:57;25.47;;;17.60;;
21012;SDS011;10664;53.582;9.712;2022-12-04T05:56:23;26.73;;;18.03;;
21012;SDS011;10664;53.582;9.712;2022-12-04T05:58:49;25.47;;;16.87;;
21012;SDS011;10664;53.582;9.712;2022-12-04T06:01:19;24.83;;;16.50;;
21012;SDS011;10664;53.582;9.712;2022-12-04T06:03:45;25.53;;;18.33;;
21012;SDS011;10664;53.582;9.712;2022-12-04T06:06:21;24.53;;;17.20;;
21012;SDS011;10664;53.582;9.712;2022-12-04T06:08:48;25.97;;;17.93;;
21012;SDS011;10664;53.582;9.712;2022-12-04T06:11:16;25.93;;;17.87;;
21012;SDS011;10664;53.582;9.712;2022-12-04T06:13:43;27.20;;;18.87;;
21012;SDS011;10664;53.582;9.712;2022-12-04T06:18:38;26.87;;;17.60;;
21012;SDS011;10664;53.582;9.712;2022-12-04T06:21:04;28.87;;;18.90;;
21012;SDS011;10664;53.582;9.712;2022-12-04T06:23:30;29.43;;;18.77;;
21012;SDS011;10664;53.582;9.712;2022-12-04T06:25:56;24.97;;;17.43;;
21012;SDS011;10664;53.582;9.712;2022-12-04T06:28:26;24.27;;;17.63;;
21012;SDS011;10664;53.582;9.712;2022-12-04T06:30:52;25.80;;;17.23;;
21012;SDS011;10664;53.582;9.712;2022-12-04T06:33:17;23.77;;;17.73;;
21012;SDS011;10664;53.582;9.712;2022-12-04T06:35:43;28.53;;;18.63;;
21012;SDS011;10664;53.582;9.712;2022-12-04T06:38:09;28.00;;;19.27;;
21012;SDS011;10664;53.582;9.712;2022-12-04T06:40:38;27.77;;;19.10;;
21012;SDS011;10664;53.582;9.712;2022-12-04T06:43:04;26.40;;;17.77;;
21012;SDS011;10664;53.582;9.712;2022-12-04T06:45:30;29.90;;;19.23;;
21012;SDS011;10664;53.582;9.712;2022-12-04T06:47:56;27.40;;;18.50;;
21012;SDS011;10664;53.582;9.712;2022-12-04T06:50:22;28.60;;;18.83;;
21012;SDS011;10664;53.582;9.712;2022-12-04T06:52:48;28.73;;;18.80;;
21012;SDS011;10664;53.582;9.712;2022-12-04T06:55:14;28.37;;;18.47;;
21012;SDS011;10664;53.582;9.712;2022-12-04T06:57:40;27.40;;;18.50;;
21012;SDS011;10664;53.582;9.712;2022-12-04T07:00:06;28.67;;;18.47;;
21012;SDS011;10664;53.582;9.712;2022-12-04T07:02:32;26.33;;;18.73;;
21012;SDS011;10664;53.582;9.712;2022-12-04T07:04:58;26.20;;;17.40;;
21012;SDS011;10664;53.582;9.712;2022-12-04T07:07:24;28.47;;;18.30;;
21012;SDS011;10664;53.582;9.712;2022-12-04T07:09:50;28.57;;;19.67;;
21012;SDS011;10664;53.582;9.712;2022-12-04T07:12:16;27.47;;;18.10;;
21012;SDS011;10664;53.582;9.712;2022-12-04T07:14:42;24.10;;;16.67;;
21012;SDS011;10664;53.582;9.712;2022-12-04T07:17:08;27.13;;;18.80;;
21012;SDS011;10664;53.582;9.712;2022-12-04T07:19:34;26.07;;;18.63;;
21012;SDS011;10664;53.582;9.712;2022-12-04T07:22:01;33.43;;;22.03;;
21012;SDS011;10664;53.582;9.712;2022-12-04T07:24:27;60.70;;;36.10;;
21012;SDS011;10664;53.582;9.712;2022-12-04T07:26:53;92.27;;;57.50;;
21012;SDS011;10664;53.582;9.712;2022-12-04T07:29:19;96.93;;;64.93;;
21012;SDS011;10664;53.582;9.712;2022-12-04T07:31:45;149.07;;;102.17;;
21012;SDS011;10664;53.582;9.712;2022-12-04T07:34:11;157.60;;;110.47;;
21012;SDS011;10664;53.582;9.712;2022-12-04T07:36:37;144.43;;;99.60;;
21012;SDS011;10664;53.582;9.712;2022-12-04T07:39:04;114.07;;;78.10;;
21012;SDS011;10664;53.582;9.712;2022-12-04T07:41:30;91.73;;;65.87;;
21012;SDS011;10664;53.582;9.712;2022-12-04T07:43:56;69.47;;;50.13;;
21012;SDS011;10664;53.582;9.712;2022-12-04T07:46:23;53.93;;;38.07;;
21012;SDS011;10664;53.582;9.712;2022-12-04T07:48:50;47.73;;;33.17;;
21012;SDS011;10664;53.582;9.712;2022-12-04T07:51:17;41.43;;;28.43;;
21012;SDS011;10664;53.582;9.712;2022-12-04T07:53:43;37.03;;;24.93;;
21012;SDS011;10664;53.582;9.712;2022-12-04T07:56:09;34.43;;;23.73;;
21012;SDS011;10664;53.582;9.712;2022-12-04T07:58:36;33.67;;;21.97;;
21012;SDS011;10664;53.582;9.712;2022-12-04T08:03:41;31.97;;;20.87;;
21012;SDS011;10664;53.582;9.712;2022-12-04T08:06:07;31.30;;;20.80;;
21012;SDS011;10664;53.582;9.712;2022-12-04T08:08:34;30.37;;;19.73;;
21012;SDS011;10664;53.582;9.712;2022-12-04T08:11:01;34.30;;;22.33;;
21012;SDS011;10664;53.582;9.712;2022-12-04T08:13:29;32.27;;;21.23;;
21012;SDS011;10664;53.582;9.712;2022-12-04T08:15:55;34.23;;;21.53;;
21012;SDS011;10664;53.582;9.712;2022-12-04T08:18:21;33.50;;;20.73;;
21012;SDS011;10664;53.582;9.712;2022-12-04T08:20:47;35.43;;;21.50;;
21012;SDS011;10664;53.582;9.712;2022-12-04T08:23:13;35.57;;;21.07;;
21012;SDS011;10664;53.582;9.712;2022-12-04T08:25:39;31.13;;;20.37;;
21012;SDS011;10664;53.582;9.712;2022-12-04T08:28:05;31.53;;;19.40;;
21012;SDS011;10664;53.582;9.712;2022-12-04T08:30:32;29.80;;;19.53;;
21012;SDS011;10664;53.582;9.712;2022-12-04T08:32:58;34.63;;;21.60;;
21012;SDS011;10664;53.582;9.712;2022-12-04T08:35:24;33.30;;;21.73;;
21012;SDS011;10664;53.582;9.712;2022-12-04T08:37:50;34.73;;;20.97;;
21012;SDS011;10664;53.582;9.712;2022-12-04T08:40:16;35.37;;;21.37;;
21012;SDS011;10664;53.582;9.712;2022-12-04T08:42:42;31.50;;;20.83;;
21012;SDS011;10664;53.582;9.712;2022-12-04T08:45:08;31.57;;;20.43;;
21012;SDS011;10664;53.582;9.712;2022-12-04T08:47:34;31.40;;;20.43;;
21012;SDS011;10664;53.582;9.712;2022-12-04T08:50:00;32.53;;;20.33;;
21012;SDS011;10664;53.582;9.712;2022-12-04T08:52:26;34.67;;;21.67;;
21012;SDS011;10664;53.582;9.712;2022-12-04T08:54:52;35.83;;;21.83;;
21012;SDS011;10664;53.582;9.712;2022-12-04T08:57:18;33.60;;;21.50;;
21012;SDS011;10664;53.582;9.712;2022-12-04T08:59:44;31.33;;;21.30;;
21012;SDS011;10664;53.582;9.712;2022-12-04T09:02:10;34.57;;;21.00;;
21012;SDS011;10664;53.582;9.712;2022-12-04T09:04:37;31.97;;;21.37;;
21012;SDS011;10664;53.582;9.712;2022-12-04T09:07:03;36.90;;;21.57;;
21012;SDS011;10664;53.582;9.712;2022-12-04T09:09:29;36.47;;;21.83;;
21012;SDS011;10664;53.582;9.712;2022-12-04T09:11:55;32.63;;;20.93;;
21012;SDS011;10664;53.582;9.712;2022-12-04T09:14:21;34.67;;;22.63;;
21012;SDS011;10664;53.582;9.712;2022-12-04T09:16:50;36.70;;;21.80;;
21012;SDS011;10664;53.582;9.712;2022-12-04T09:19:16;35.40;;;21.87;;
21012;SDS011;10664;53.582;9.712;2022-12-04T09:21:42;33.37;;;21.90;;
21012;SDS011;10664;53.582;9.712;2022-12-04T09:24:08;34.67;;;21.63;;
21012;SDS011;10664;53.582;9.712;2022-12-04T09:26:34;35.87;;;22.37;;
21012;SDS011;10664;53.582;9.712;2022-12-04T09:29:03;36.00;;;21.67;;
21012;SDS011;10664;53.582;9.712;2022-12-04T09:31:30;34.47;;;21.63;;
21012;SDS011;10664;53.582;9.712;2022-12-04T09:33:59;37.00;;;22.87;;
21012;SDS011;10664;53.582;9.712;2022-12-04T09:36:26;35.73;;;20.90;;
21012;SDS011;10664;53.582;9.712;2022-12-04T09:38:52;33.57;;;21.00;;
21012;SDS011;10664;53.582;9.712;2022-12-04T09:41:32;36.43;;;22.47;;
21012;SDS011;10664;53.582;9.712;2022-12-04T09:44:01;35.10;;;21.57;;
21012;SDS011;10664;53.582;9.712;2022-12-04T09:46:29;35.10;;;22.57;;
21012;SDS011;10664;53.582;9.712;2022-12-04T09:48:56;33.13;;;20.87;;
21012;SDS011;10664;53.582;9.712;2022-12-04T09:51:23;31.90;;;20.67;;
21012;SDS011;10664;53.582;9.712;2022-12-04T09:53:52;32.77;;;21.20;;
21012;SDS011;10664;53.582;9.712;2022-12-04T09:56:19;32.47;;;20.17;;
21012;SDS011;10664;53.582;9.712;2022-12-04T09:58:57;34.73;;;20.90;;
21012;SDS011;10664;53.582;9.712;2022-12-04T10:04:09;30.93;;;20.40;;
21012;SDS011;10664;53.582;9.712;2022-12-04T10:06:40;30.50;;;20.13;;
21012;SDS011;10664;53.582;9.712;2022-12-04T10:11:58;33.40;;;20.83;;
21012;SDS011;10664;53.582;9.712;2022-12-04T10:19:22;31.30;;;20.57;;
21012;SDS011;10664;53.582;9.712;2022-12-04T10:22:36;31.63;;;19.70;;
21012;SDS011;10664;53.582;9.712;2022-12-04T10:24:43;30.97;;;19.93;;
21012;SDS011;10664;53.582;9.712;2022-12-04T10:27:17;28.80;;;18.17;;
21012;SDS011;10664;53.582;9.712;2022-12-04T10:29:45;29.20;;;19.17;;
21012;SDS011;10664;53.582;9.712;2022-12-04T10:32:15;29.10;;;17.93;;
21012;SDS011;10664;53.582;9.712;2022-12-04T10:34:41;29.87;;;19.53;;
21012;SDS011;10664;53.582;9.712;2022-12-04T10:37:10;27.63;;;18.27;;
21012;SDS011;10664;53.582;9.712;2022-12-04T10:42:26;29.40;;;18.13;;
21012;SDS011;10664;53.582;9.712;2022-12-04T10:44:53;28.63;;;18.17;;
21012;SDS011;10664;53.582;9.712;2022-12-04T10:47:19;29.90;;;19.47;;
21012;SDS011;10664;53.582;9.712;2022-12-04T10:49:47;29.53;;;18.93;;
21012;SDS011;10664;53.582;9.712;2022-12-04T10:52:14;24.70;;;17.30;;
21012;SDS011;10664;53.582;9.712;2022-12-04T10:54:54;25.80;;;17.33;;
21012;SDS011;10664;53.582;9.712;2022-12-04T10:57:21;25.57;;;17.10;;
21012;SDS011;10664;53.582;9.712;2022-12-04T10:59:51;26.17;;;17.90;;
21012;SDS011;10664;53.582;9.712;2022-12-04T11:02:19;30.07;;;19.73;;
21012;SDS011;10664;53.582;9.712;2022-12-04T11:04:56;26.77;;;18.37;;
21012;SDS011;10664;53.582;9.712;2022-12-04T11:07:29;29.00;;;19.10;;
21012;SDS011;10664;53.582;9.712;2022-12-04T11:10:42;29.73;;;19.10;;
21012;SDS011;10664;53.582;9.712;2022-12-04T11:12:53;27.57;;;18.47;;
21012;SDS011;10664;53.582;9.712;2022-12-04T11:15:19;26.00;;;17.37;;
21012;SDS011;10664;53.582;9.712;2022-12-04T11:17:45;26.30;;;17.70;;
21012;SDS011;10664;53.582;9.712;2022-12-04T11:20:22;27.90;;;18.57;;
21012;SDS011;10664;53.582;9.712;2022-12-04T11:22:49;35.30;;;22.00;;
21012;SDS011;10664;53.582;9.712;2022-12-04T11:25:16;39.67;;;24.57;;
21012;SDS011;10664;53.582;9.712;2022-12-04T11:27:44;38.57;;;25.37;;
21012;SDS011;10664;53.582;9.712;2022-12-04T11:30:14;36.57;;;23.70;;
21012;SDS011;10664;53.582;9.712;2022-12-04T11:32:43;39.50;;;24.97;;
21012;SDS011;10664;53.582;9.712;2022-12-04T11:35:48;43.80;;;24.97;;
21012;SDS011;10664;53.582;9.712;2022-12-04T11:40:31;37.83;;;23.43;;
21012;SDS011;10664;53.582;9.712;2022-12-04T11:45:35;33.23;;;22.27;;
21012;SDS011;10664;53.582;9.712;2022-12-04T11:48:02;29.73;;;20.17;;
21012;SDS011;10664;53.582;9.712;2022-12-04T11:50:37;28.73;;;19.57;;
21012;SDS011;10664;53.582;9.712;2022-12-04T11:55:39;28.13;;;18.43;;
21012;SDS011;10664;53.582;9.712;2022-12-04T12:01:12;26.97;;;18.53;;
21012;SDS011;10664;53.582;9.712;2022-12-04T12:03:42;29.47;;;19.77;;
21012;SDS011;10664;53.582;9.712;2022-12-04T12:08:54;27.67;;;19.23;;
21012;SDS011;10664;53.582;9.712;2022-12-04T12:11:33;25.27;;;18.07;;
21012;SDS011;10664;53.582;9.712;2022-12-04T12:16:30;25.60;;;17.73;;
21012;SDS011;10664;53.582;9.712;2022-12-04T12:19:02;26.17;;;17.97;;
21012;SDS011;10664;53.582;9.712;2022-12-04T12:21:38;24.80;;;17.60;;
21012;SDS011;10664;53.582;9.712;2022-12-04T12:24:20;25.20;;;18.10;;
21012;SDS011;10664;53.582;9.712;2022-12-04T12:34:16;25.60;;;17.07;;
21012;SDS011;10664;53.582;9.712;2022-12-04T12:36:44;26.77;;;18.50;;
21012;SDS011;10664;53.582;9.712;2022-12-04T12:39:19;28.27;;;19.00;;
21012;SDS011;10664;53.582;9.712;2022-12-04T12:41:54;24.80;;;18.13;;
21012;SDS011;10664;53.582;9.712;2022-12-04T12:44:23;25.13;;;17.67;;
21012;SDS011;10664;53.582;9.712;2022-12-04T12:46:50;24.83;;;17.73;;
21012;SDS011;10664;53.582;9.712;2022-12-04T12:49:25;25.57;;;16.73;;
21012;SDS011;10664;53.582;9.712;2022-12-04T12:54:25;24.00;;;17.43;;
21012;SDS011;10664;53.582;9.712;2022-12-04T12:56:54;26.83;;;18.77;;
21012;SDS011;10664;53.582;9.712;2022-12-04T12:59:23;24.60;;;16.90;;
21012;SDS011;10664;53.582;9.712;2022-12-04T13:01:57;26.43;;;17.90;;
21012;SDS011;10664;53.582;9.712;2022-12-04T13:09:50;23.40;;;16.93;;
21012;SDS011;10664;53.582;9.712;2022-12-04T13:12:18;23.67;;;16.90;;
21012;SDS011;10664;53.582;9.712;2022-12-04T13:14:45;21.27;;;15.93;;
21012;SDS011;10664;53.582;9.712;2022-12-04T13:19:53;24.03;;;16.87;;
21012;SDS011;10664;53.582;9.712;2022-12-04T13:22:36;24.37;;;17.07;;
21012;SDS011;10664;53.582;9.712;2022-12-04T13:25:24;23.00;;;16.53;;
21012;SDS011;10664;53.582;9.712;2022-12-04T13:28:04;22.77;;;15.30;;
21012;SDS011;10664;53.582;9.712;2022-12-04T13:30:56;20.87;;;15.27;;
21012;SDS011;10664;53.582;9.712;2022-12-04T13:38:52;25.30;;;16.93;;
21012;SDS011;10664;53.582;9.712;2022-12-04T13:41:21;23.60;;;16.40;;
21012;SDS011;10664;53.582;9.712;2022-12-04T13:43:48;22.13;;;15.47;;
21012;SDS011;10664;53.582;9.712;2022-12-04T13:51:43;19.70;;;15.27;;
21012;SDS011;10664;53.582;9.712;2022-12-04T13:56:35;22.10;;;15.20;;
21012;SDS011;10664;53.582;9.712;2022-12-04T13:59:03;21.13;;;14.27;;
21012;SDS011;10664;53.582;9.712;2022-12-04T14:01:33;19.80;;;14.07;;
21012;SDS011;10664;53.582;9.712;2022-12-04T14:04:01;21.43;;;14.80;;
21012;SDS011;10664;53.582;9.712;2022-12-04T14:06:31;21.67;;;14.90;;
21012;SDS011;10664;53.582;9.712;2022-12-04T14:08:59;19.27;;;14.30;;
21012;SDS011;10664;53.582;9.712;2022-12-04T14:11:27;21.07;;;14.83;;
21012;SDS011;10664;53.582;9.712;2022-12-04T14:13:54;19.93;;;14.67;;
21012;SDS011;10664;53.582;9.712;2022-12-04T14:16:25;19.73;;;14.60;;
21012;SDS011;10664;53.582;9.712;2022-12-04T14:18:58;18.23;;;13.50;;
21012;SDS011;10664;53.582;9.712;2022-12-04T14:21:25;18.80;;;13.80;;
21012;SDS011;10664;53.582;9.712;2022-12-04T14:23:51;17.07;;;13.33;;
21012;SDS011;10664;53.582;9.712;2022-12-04T14:26:22;19.60;;;14.53;;
21012;SDS011;10664;53.582;9.712;2022-12-04T14:28:48;19.97;;;14.23;;
21012;SDS011;10664;53.582;9.712;2022-12-04T14:31:20;20.40;;;14.10;;
21012;SDS011;10664;53.582;9.712;2022-12-04T14:33:56;19.07;;;13.60;;
21012;SDS011;10664;53.582;9.712;2022-12-04T14:38:58;19.40;;;14.13;;
21012;SDS011;10664;53.582;9.712;2022-12-04T14:41:25;19.30;;;14.10;;
21012;SDS011;10664;53.582;9.712;2022-12-04T14:43:51;18.17;;;13.97;;
21012;SDS011;10664;53.582;9.712;2022-12-04T14:46:19;19.07;;;14.30;;
21012;SDS011;10664;53.582;9.712;2022-12-04T14:48:51;19.83;;;14.70;;
21012;SDS011;10664;53.582;9.712;2022-12-04T14:51:24;19.97;;;14.77;;
21012;SDS011;10664;53.582;9.712;2022-12-04T14:54:06;20.60;;;14.27;;
21012;SDS011;10664;53.582;9.712;2022-12-04T14:56:41;20.43;;;14.67;;
21012;SDS011;10664;53.582;9.712;2022-12-04T14:59:16;18.87;;;13.70;;
21012;SDS011;10664;53.582;9.712;2022-12-04T15:01:44;19.00;;;13.87;;
21012;SDS011;10664;53.582;9.712;2022-12-04T15:04:18;21.10;;;15.40;;
21012;SDS011;10664;53.582;9.712;2022-12-04T15:06:47;20.63;;;14.90;;
21012;SDS011;10664;53.582;9.712;2022-12-04T15:09:18;19.90;;;14.77;;
21012;SDS011;10664;53.582;9.712;2022-12-04T15:12:14;20.53;;;15.13;;
21012;SDS011;10664;53.582;9.712;2022-12-04T15:17:37;22.10;;;15.63;;
21012;SDS011;10664;53.582;9.712;2022-12-04T15:20:08;23.50;;;15.80;;
21012;SDS011;10664;53.582;9.712;2022-12-04T15:22:34;23.10;;;15.57;;
21012;SDS011;10664;53.582;9.712;2022-12-04T15:25:00;24.67;;;16.83;;
21012;SDS011;10664;53.582;9.712;2022-12-04T15:27:26;24.27;;;16.20;;
21012;SDS011;10664;53.582;9.712;2022-12-04T15:29:52;24.37;;;16.33;;
21012;SDS011;10664;53.582;9.712;2022-12-04T15:32:21;22.70;;;15.73;;
21012;SDS011;10664;53.582;9.712;2022-12-04T15:34:50;20.20;;;15.27;;
21012;SDS011;10664;53.582;9.712;2022-12-04T15:39:49;21.90;;;16.37;;
21012;SDS011;10664;53.582;9.712;2022-12-04T15:42:16;23.20;;;16.33;;
21012;SDS011;10664;53.582;9.712;2022-12-04T15:44:54;22.63;;;16.23;;
21012;SDS011;10664;53.582;9.712;2022-12-04T15:47:28;23.90;;;16.33;;
21012;SDS011;10664;53.582;9.712;2022-12-04T15:49:54;23.73;;;16.13;;
21012;SDS011;10664;53.582;9.712;2022-12-04T15:52:22;22.90;;;16.23;;
21012;SDS011;10664;53.582;9.712;2022-12-04T15:55:01;25.50;;;16.20;;
21012;SDS011;10664;53.582;9.712;2022-12-04T15:57:31;24.07;;;16.77;;
21012;SDS011;10664;53.582;9.712;2022-12-04T15:59:58;21.37;;;15.60;;